Terminal Aerodrome Forecast
Issued by NWS Newport/Morehead City, NC

Home | Current Version | Previous Version | Text Only | Print | Product List | Glossary On
Versions: 1 2 3 4 5 6 7 8 9 10 11 12 13 14 15 16 17 18 19
000
FTUS42 KMHX 050414 AAA
TAFEWN
TAF AMD
KEWN 050414Z 0504/0524 03005KT 5SM BR BKN250
     FM050800 VRB03KT P6SM BKN015
     FM051400 04005KT P6SM SCT020 BKN035
     FM051800 04010KT P6SM VCTS SCT050CB=

USA.gov is the U.S. government's official web portal to all federal, state and local government web resources and services.